Time;durP1;ratioP1;P1;durP2;ratioP2;P2;SDS_P1;SDS_P2;PMS_P1;PMS_P2;Temp;Humidity;BMP_temperature;BMP_pressure;BME280_temperature;BME280_humidity;BME280_pressure;Samples;Min_cycle;Max_cycle;Signal;HPM_P1;HPM_P2
2022/07/29 00:03:47;;;;;;;4.47;2.60;;;28.80;54.40;;;;;;10872572;32;20039;-72
2022/07/29 00:09:49;;;;;;;3.28;2.42;;;29.00;54.30;;;;;;10872119;32;20020;-72
2022/07/29 00:15:51;;;;;;;4.72;3.20;;;29.30;54.00;;;;;;10871912;32;20296;-72
2022/07/29 00:21:53;;;;;;;4.93;3.70;;;29.00;54.10;;;;;;10871939;32;20038;-73
2022/07/29 00:27:55;;;;;;;6.68;3.85;;;28.70;53.80;;;;;;10871545;32;20027;-72
2022/07/29 00:33:57;;;;;;;5.65;3.22;;;28.60;53.70;;;;;;10871607;32;20020;-72
2022/07/29 00:40:01;;;;;;;3.05;2.03;;;28.40;53.00;;;;;;10870553;32;20047;-72
2022/07/29 00:46:03;;;;;;;2.72;1.25;;;28.30;51.90;;;;;;10871112;32;20019;-72
2022/07/29 00:52:07;;;;;;;3.33;1.87;;;28.20;51.60;;;;;;10870814;32;20036;-70
2022/07/29 00:58:12;;;;;;;1.67;1.27;;;28.30;52.60;;;;;;10870533;32;20020;-72
2022/07/29 01:04:14;;;;;;;2.03;1.27;;;28.40;53.20;;;;;;10870322;32;20046;-71
2022/07/29 01:10:18;;;;;;;2.65;1.48;;;28.30;52.70;;;;;;10870134;32;20050;-72
2022/07/29 01:16:32;;;;;;;1.77;1.12;;;28.10;53.10;;;;;;10869756;32;20036;-72
2022/07/29 01:22:34;;;;;;;4.50;1.30;;;28.30;53.40;;;;;;10869738;32;20020;-72
2022/07/29 01:28:49;;;;;;;2.10;1.10;;;28.60;53.40;;;;;;10869442;32;20028;-72
2022/07/29 01:34:54;;;;;;;1.12;0.70;;;28.70;53.20;;;;;;10869250;32;20059;-72
2022/07/29 01:41:06;;;;;;;1.70;0.90;;;28.70;53.50;;;;;;10869652;32;20032;-72
2022/07/29 01:47:17;;;;;;;1.60;0.80;;;28.80;53.70;;;;;;10868645;32;20384;-72
2022/07/29 01:53:30;;;;;;;0.68;0.52;;;28.80;53.60;;;;;;10868187;32;20364;-72
2022/07/29 01:59:56;;;;;;;1.12;0.70;;;28.80;53.80;;;;;;10868220;32;20019;-72
2022/07/29 02:05:59;;;;;;;1.35;0.93;;;28.60;54.00;;;;;;10868300;32;20043;-72
2022/07/29 02:12:03;;;;;;;1.40;0.98;;;28.60;54.00;;;;;;10868079;32;20024;-72
2022/07/29 02:18:09;;;;;;;1.83;1.27;;;28.60;54.00;;;;;;10867960;32;20054;-72
2022/07/29 02:24:13;;;;;;;0.62;0.50;;;28.50;54.30;;;;;;10867757;32;20451;-72
2022/07/29 02:30:15;;;;;;;2.40;1.20;;;28.50;54.00;;;;;;10867517;32;20016;-73
2022/07/29 02:36:20;;;;;;;0.32;0.32;;;28.50;54.10;;;;;;10867286;32;20050;-72
2022/07/29 02:42:26;;;;;;;0.95;0.85;;;28.20;54.40;;;;;;10867257;32;20027;-72
2022/07/29 02:48:48;;;;;;;1.62;0.95;;;27.90;54.50;;;;;;10867173;32;20019;-73
2022/07/29 02:55:01;;;;;;;0.60;0.60;;;27.80;54.70;;;;;;10868267;32;20196;-72
2022/07/29 03:01:13;;;;;;;1.12;0.70;;;27.60;55.00;;;;;;10869601;32;20050;-72
2022/07/29 03:07:17;;;;;;;1.00;0.73;;;27.60;55.10;;;;;;10874436;32;20023;-72
2022/07/29 03:13:20;;;;;;;1.67;0.70;;;27.50;55.10;;;;;;10874314;32;20046;-72
2022/07/29 03:19:22;;;;;;;1.92;1.15;;;27.50;55.30;;;;;;10874112;32;20051;-72
2022/07/29 03:25:26;;;;;;;0.52;0.52;;;27.70;55.20;;;;;;10873760;32;20298;-72
2022/07/29 03:31:28;;;;;;;2.03;1.02;;;27.60;55.20;;;;;;10873479;32;20024;-73
2022/07/29 03:37:31;;;;;;;1.48;0.95;;;27.70;55.40;;;;;;10873357;32;20070;-72
2022/07/29 03:43:37;;;;;;;2.58;1.20;;;27.80;55.30;;;;;;10872937;32;20024;-72
2022/07/29 03:49:41;;;;;;;1.27;0.82;;;27.80;55.30;;;;;;10872917;32;20054;-72
2022/07/29 03:55:50;;;;;;;0.93;0.70;;;27.70;55.60;;;;;;10869743;32;20032;-72
2022/07/29 04:01:55;;;;;;;1.92;1.20;;;27.50;55.80;;;;;;10872558;32;20031;-72
2022/07/29 04:07:58;;;;;;;1.33;0.85;;;27.30;56.20;;;;;;10872471;32;20399;-73
2022/07/29 04:14:00;;;;;;;2.33;1.30;;;27.30;56.10;;;;;;10871393;32;20008;-72
2022/07/29 04:20:03;;;;;;;1.55;0.85;;;27.00;56.50;;;;;;10871997;32;20058;-73
2022/07/29 04:26:05;;;;;;;1.12;0.88;;;27.00;56.40;;;;;;10871746;32;20434;-73
2022/07/29 04:32:07;;;;;;;2.33;1.12;;;26.80;56.60;;;;;;10906194;27;20057;-73
2022/07/29 04:38:34;;;;;;;1.02;0.90;;;26.70;56.80;;;;;;10908746;32;20023;-72
2022/07/29 04:44:37;;;;;;;3.07;1.43;;;26.80;56.90;;;;;;10908403;32;20027;-72
2022/07/29 04:50:40;;;;;;;1.00;0.60;;;26.90;56.70;;;;;;10908311;32;20016;-72
2022/07/29 04:56:42;;;;;;;1.95;0.80;;;27.00;56.60;;;;;;10908083;32;20019;-72
2022/07/29 05:02:45;;;;;;;1.55;0.88;;;27.00;56.70;;;;;;10907898;32;20019;-72
2022/07/29 05:08:48;;;;;;;2.45;1.35;;;27.00;56.60;;;;;;10894339;32;20332;-73
2022/07/29 05:14:50;;;;;;;1.30;0.95;;;26.80;57.00;;;;;;10907494;32;20020;-73
2022/07/29 05:20:59;;;;;;;2.95;1.55;;;26.70;57.00;;;;;;10907166;32;20058;-73
2022/07/29 05:27:01;;;;;;;2.78;1.20;;;26.60;56.90;;;;;;10906667;32;20472;-72
2022/07/29 05:33:13;;;;;;;2.20;1.15;;;26.50;56.90;;;;;;10906653;32;20011;-72
2022/07/29 05:39:16;;;;;;;1.87;1.27;;;26.60;56.90;;;;;;10906419;32;20032;-72
2022/07/29 05:45:18;;;;;;;3.20;1.00;;;26.90;56.60;;;;;;10906149;32;20031;-75
2022/07/29 05:51:20;;;;;;;1.27;0.90;;;27.00;56.30;;;;;;10906036;32;20046;-72
2022/07/29 05:57:23;;;;;;;1.80;1.45;;;27.10;56.10;;;;;;10905805;32;20054;-72
2022/07/29 06:03:26;;;;;;;1.20;1.08;;;27.20;56.00;;;;;;10905635;32;20023;-72
2022/07/29 06:09:28;;;;;;;1.77;1.02;;;27.40;55.60;;;;;;10905234;32;20046;-72
2022/07/29 06:15:32;;;;;;;4.95;2.20;;;27.60;55.30;;;;;;10905003;32;20027;-72
2022/07/29 06:21:47;;;;;;;2.22;1.30;;;27.80;55.00;;;;;;10905087;32;20019;-72
2022/07/29 06:27:50;;;;;;;6.90;1.77;;;27.80;54.80;;;;;;10904361;32;20046;-71
2022/07/29 06:33:52;;;;;;;3.78;1.00;;;28.00;54.60;;;;;;10904271;32;20055;-72
2022/07/29 06:46:17;;;;;;;2.12;1.30;;;28.30;54.20;;;;;;10904406;32;20031;-72
2022/07/29 06:52:19;;;;;;;2.90;1.60;;;28.60;54.20;;;;;;10904340;32;20046;-71
2022/07/29 06:58:22;;;;;;;2.53;1.40;;;28.80;53.70;;;;;;10896659;32;20360;-72
2022/07/29 07:04:30;;;;;;;2.60;1.70;;;28.80;53.30;;;;;;10904311;32;20411;-72
2022/07/29 07:10:32;;;;;;;2.55;1.62;;;28.80;53.20;;;;;;10903891;32;20078;-73
2022/07/29 07:16:34;;;;;;;2.00;1.80;;;28.90;53.30;;;;;;10903954;32;20400;-72
2022/07/29 07:22:36;;;;;;;5.30;1.75;;;29.00;53.00;;;;;;10899342;32;20348;-72
2022/07/29 07:28:38;;;;;;;2.22;1.65;;;29.20;52.90;;;;;;10903674;32;20046;-72
2022/07/29 07:34:43;;;;;;;2.55;1.60;;;29.30;52.30;;;;;;10903629;32;20023;-72
2022/07/29 07:40:46;;;;;;;1.92;1.42;;;29.40;52.30;;;;;;10903469;32;20020;-72
2022/07/29 07:46:48;;;;;;;3.50;1.35;;;29.50;51.80;;;;;;10905615;32;20050;-71
2022/07/29 07:52:52;;;;;;;2.25;1.48;;;29.60;51.70;;;;;;10910399;32;20046;-73
2022/07/29 07:59:03;;;;;;;3.92;1.92;;;29.80;51.60;;;;;;10910001;32;20031;-72
2022/07/29 08:05:07;;;;;;;3.17;1.65;;;29.90;51.30;;;;;;10909980;32;20426;-72
2022/07/29 08:11:21;;;;;;;3.87;1.58;;;30.10;51.10;;;;;;10896421;32;20474;-71
2022/07/29 08:17:23;;;;;;;3.58;2.22;;;30.30;50.70;;;;;;10876455;32;20054;-73
2022/07/29 08:23:26;;;;;;;3.95;1.95;;;30.30;50.50;;;;;;10871768;32;20062;-71
2022/07/29 08:29:29;;;;;;;4.03;2.67;;;30.30;50.40;;;;;;10871418;32;20050;-71
2022/07/29 08:35:31;;;;;;;4.15;2.20;;;30.40;49.80;;;;;;10871501;32;20047;-71
2022/07/29 08:41:33;;;;;;;4.60;1.83;;;30.40;49.70;;;;;;10871312;32;20031;-71
2022/07/29 08:47:39;;;;;;;4.22;2.70;;;30.50;49.20;;;;;;10876231;32;20054;-72
2022/07/29 08:53:43;;;;;;;4.87;3.08;;;30.70;49.20;;;;;;10871216;32;20328;-70
2022/07/29 08:59:47;;;;;;;3.00;1.90;;;30.80;48.60;;;;;;10870167;32;20031;-71
2022/07/29 09:05:49;;;;;;;3.40;2.37;;;30.80;48.00;;;;;;10869766;32;20015;-71
2022/07/29 09:11:53;;;;;;;4.15;2.40;;;31.00;48.10;;;;;;10871919;32;20063;-70
2022/07/29 09:17:56;;;;;;;3.00;2.22;;;31.30;47.80;;;;;;10866567;32;20023;-71
2022/07/29 09:24:11;;;;;;;4.30;2.72;;;31.50;47.60;;;;;;10869672;32;20066;-71
2022/07/29 09:30:50;;;;;;;7.55;2.00;;;31.70;47.10;;;;;;10869470;32;20023;-72
2022/07/29 09:37:11;;;;;;;10.00;2.72;;;31.70;46.50;;;;;;10869070;32;20352;-70
2022/07/29 09:43:14;;;;;;;4.37;2.65;;;31.60;45.70;;;;;;10886440;32;20449;-70
2022/07/29 09:49:16;;;;;;;6.47;2.65;;;31.70;45.30;;;;;;10906150;32;20031;-70
2022/07/29 09:55:19;;;;;;;5.22;2.80;;;31.90;45.30;;;;;;10889492;32;20050;-70
2022/07/29 10:01:51;;;;;;;2.22;1.50;;;32.10;44.80;;;;;;10872920;32;20396;-71
2022/07/29 10:07:56;;;;;;;3.85;2.15;;;32.30;44.40;;;;;;10868143;32;20332;-70
2022/07/29 10:14:14;;;;;;;5.68;2.97;;;32.70;43.70;;;;;;10864720;32;20046;-73
2022/07/29 10:20:17;;;;;;;3.17;2.35;;;32.70;42.80;;;;;;10867098;32;20054;-70
2022/07/29 10:26:20;;;;;;;2.33;1.67;;;32.60;42.60;;;;;;10867703;32;20054;-72
2022/07/29 10:32:35;;;;;;;4.40;2.33;;;32.80;43.20;;;;;;10867393;32;20059;-72
2022/07/29 10:39:16;;;;;;;2.20;1.83;;;33.00;42.60;;;;;;10863814;32;20031;-72
2022/07/29 10:45:18;;;;;;;5.40;2.65;;;33.20;42.40;;;;;;10863236;32;20093;-71
2022/07/29 10:51:20;;;;;;;4.10;2.15;;;33.40;41.90;;;;;;10867016;32;20054;-71
2022/07/29 10:57:30;;;;;;;3.37;2.20;;;33.60;41.30;;;;;;10863728;32;20058;-71
2022/07/29 11:03:46;;;;;;;4.37;2.40;;;33.70;40.60;;;;;;10866704;32;20074;-71
2022/07/29 11:10:13;;;;;;;3.70;2.20;;;33.70;39.80;;;;;;10866769;32;20023;-71
2022/07/29 11:16:17;;;;;;;3.78;1.83;;;33.80;39.60;;;;;;10853637;32;20380;-71
2022/07/29 11:22:43;;;;;;;2.85;1.83;;;34.10;39.90;;;;;;10865266;32;20028;-71
2022/07/29 11:29:20;;;;;;;7.17;2.57;;;34.40;39.10;;;;;;10480692;32;12251707;-69
2022/07/29 11:35:42;;;;;;;2.57;1.57;;;34.70;39.00;;;;;;10795250;33;20067;-72
2022/07/29 11:41:44;;;;;;;3.67;1.80;;;34.90;38.40;;;;;;10791560;33;20137;-73
2022/07/29 11:47:47;;;;;;;5.95;2.20;;;35.20;38.00;;;;;;10795894;33;20028;-72
2022/07/29 11:53:50;;;;;;;3.37;1.77;;;35.20;37.10;;;;;;10808924;32;20420;-71
2022/07/29 11:59:55;;;;;;;4.40;2.40;;;35.20;37.20;;;;;;10872692;32;20055;-70
2022/07/29 12:05:57;;;;;;;4.62;2.78;;;35.40;36.80;;;;;;10872480;32;20032;-72
2022/07/29 12:12:01;;;;;;;3.72;2.67;;;35.40;36.70;;;;;;10872266;32;20016;-71
2022/07/29 12:18:15;;;;;;;4.00;2.22;;;35.50;36.30;;;;;;10871976;32;20090;-71
2022/07/29 12:24:18;;;;;;;2.55;1.33;;;35.70;35.80;;;;;;10872016;32;20062;-72
2022/07/29 12:30:49;;;;;;;3.30;2.15;;;35.80;35.60;;;;;;10896462;27;20046;-70
2022/07/29 12:36:55;;;;;;;6.80;2.15;;;35.70;34.30;;;;;;10906600;32;20301;-73
2022/07/29 12:43:37;;;;;;;3.03;1.70;;;35.50;35.20;;;;;;10908671;32;20017;-71
2022/07/29 12:50:08;;;;;;;4.65;2.12;;;35.80;35.10;;;;;;10908487;32;20054;-70
2022/07/29 12:56:34;;;;;;;3.70;2.12;;;35.80;35.00;;;;;;10908203;32;20012;-70
2022/07/29 13:02:38;;;;;;;3.47;2.62;;;35.90;35.20;;;;;;10907793;32;20023;-72
2022/07/29 13:09:23;;;;;;;4.12;2.42;;;36.00;35.60;;;;;;10906146;32;20024;-70
2022/07/29 13:15:26;;;;;;;5.65;2.53;;;35.90;36.00;;;;;;10825963;32;20023;-70
2022/07/29 13:21:28;;;;;;;2.45;2.10;;;35.80;37.10;;;;;;10829084;32;20416;-71
2022/07/29 13:27:56;;;;;;;8.60;3.00;;;35.90;37.40;;;;;;10827082;32;20434;-71
2022/07/29 13:33:58;;;;;;;4.72;3.05;;;36.00;37.10;;;;;;10828805;32;20039;-70
2022/07/29 13:40:22;;;;;;;4.05;2.75;;;36.00;37.00;;;;;;10828629;32;20336;-70
2022/07/29 13:47:02;;;;;;;5.45;2.97;;;36.00;36.80;;;;;;10891060;32;20020;-70
2022/07/29 13:53:04;;;;;;;4.40;3.42;;;35.90;37.40;;;;;;10904136;32;20018;-70
2022/07/29 13:59:07;;;;;;;5.97;2.70;;;35.90;37.60;;;;;;10904936;32;20045;-69
2022/07/29 14:05:09;;;;;;;4.55;2.60;;;35.90;38.20;;;;;;10905652;32;20024;-69
2022/07/29 14:11:11;;;;;;;11.57;3.53;;;35.80;38.30;;;;;;10905578;32;20019;-70
2022/07/29 14:17:14;;;;;;;4.32;2.20;;;35.60;38.50;;;;;;10905252;32;20321;-71
2022/07/29 14:23:16;;;;;;;4.43;2.22;;;35.60;38.40;;;;;;10905186;32;20012;-69
2022/07/29 14:29:18;;;;;;;5.30;3.08;;;35.60;38.20;;;;;;10904885;32;20023;-71
2022/07/29 14:35:20;;;;;;;5.97;3.33;;;35.60;37.90;;;;;;10904037;32;20046;-71
2022/07/29 14:41:22;;;;;;;3.85;2.12;;;35.40;38.40;;;;;;10904431;32;20062;-71
2022/07/29 14:47:25;;;;;;;2.85;2.08;;;35.20;39.10;;;;;;10899447;32;20023;-72
2022/07/29 14:53:26;;;;;;;7.87;2.08;;;35.00;39.10;;;;;;10904434;32;20020;-71
2022/07/29 14:59:28;;;;;;;2.45;1.98;;;34.90;39.50;;;;;;10903746;32;20348;-71
2022/07/29 15:05:31;;;;;;;4.07;2.35;;;34.70;39.80;;;;;;10900854;32;20333;-71
2022/07/29 15:11:33;;;;;;;4.07;2.20;;;34.60;39.70;;;;;;10901689;32;20023;-70
2022/07/29 15:17:35;;;;;;;2.95;1.75;;;34.50;39.80;;;;;;10903040;32;20031;-70
2022/07/29 15:23:38;;;;;;;2.87;1.92;;;34.30;40.40;;;;;;10903799;32;20438;-70
2022/07/29 15:29:41;;;;;;;5.40;2.28;;;34.20;40.50;;;;;;10886418;32;20308;-70
2022/07/29 15:35:44;;;;;;;5.55;2.30;;;34.10;40.40;;;;;;10903602;32;20042;-69
2022/07/29 15:41:46;;;;;;;3.87;2.17;;;34.10;40.30;;;;;;10902928;32;20384;-71
2022/07/29 15:47:48;;;;;;;5.93;2.83;;;33.90;40.50;;;;;;10902586;32;20034;-70
2022/07/29 15:53:50;;;;;;;3.03;1.90;;;33.90;40.30;;;;;;10903250;32;20049;-70
2022/07/29 15:59:52;;;;;;;4.57;2.47;;;33.80;40.10;;;;;;10903186;32;20042;-70
2022/07/29 16:05:54;;;;;;;3.00;1.92;;;33.70;40.20;;;;;;10903006;32;20035;-71
2022/07/29 16:11:56;;;;;;;3.45;2.20;;;33.60;40.30;;;;;;10909717;32;20020;-72
2022/07/29 16:17:58;;;;;;;3.15;1.98;;;33.70;40.30;;;;;;10909124;32;20018;-72
2022/07/29 16:24:00;;;;;;;2.05;1.35;;;33.80;40.30;;;;;;10908718;32;20347;-72
2022/07/29 16:30:04;;;;;;;3.17;1.60;;;33.80;40.20;;;;;;10908581;32;20047;-73
2022/07/29 16:36:07;;;;;;;3.83;1.37;;;33.70;40.10;;;;;;10904465;32;20044;-71
2022/07/29 16:42:09;;;;;;;1.77;1.60;;;33.70;40.20;;;;;;10908475;32;20031;-71
2022/07/29 16:48:11;;;;;;;2.60;1.40;;;33.60;40.20;;;;;;10908353;32;20019;-71
2022/07/29 16:54:14;;;;;;;2.72;1.45;;;33.70;40.40;;;;;;10907834;32;20028;-70
2022/07/29 17:00:16;;;;;;;2.30;1.42;;;33.70;40.50;;;;;;10907837;32;20050;-71
2022/07/29 17:06:19;;;;;;;3.10;1.80;;;33.60;40.60;;;;;;10907737;32;20026;-71
2022/07/29 17:12:20;;;;;;;2.20;1.40;;;33.40;40.80;;;;;;10907528;32;20328;-70
2022/07/29 17:18:25;;;;;;;4.32;1.92;;;33.40;41.00;;;;;;10907020;32;20027;-71
2022/07/29 17:24:28;;;;;;;2.42;1.75;;;33.40;41.10;;;;;;10907285;32;20211;-71
2022/07/29 17:30:38;;;;;;;2.78;1.92;;;33.30;41.20;;;;;;10893896;32;20351;-71
2022/07/29 17:36:40;;;;;;;3.80;2.28;;;33.30;41.30;;;;;;10906751;32;20020;-71
2022/07/29 17:42:42;;;;;;;2.17;1.65;;;33.20;41.50;;;;;;10906613;32;20027;-70
2022/07/29 17:48:45;;;;;;;3.90;2.55;;;33.10;41.80;;;;;;10904850;32;20027;-67
2022/07/29 17:54:48;;;;;;;15.40;3.83;;;32.80;42.40;;;;;;10903212;32;20046;-67
2022/07/29 18:00:50;;;;;;;4.22;1.70;;;32.00;44.50;;;;;;10900807;32;20058;-70
2022/07/29 18:06:54;;;;;;;7.97;3.00;;;30.90;46.30;;;;;;10904872;32;20020;-68
2022/07/29 18:12:56;;;;;;;5.45;2.28;;;30.30;47.50;;;;;;10904687;32;20023;-68
2022/07/29 18:18:58;;;;;;;3.30;1.75;;;29.80;48.30;;;;;;10905223;32;20035;-68
2022/07/29 18:25:01;;;;;;;4.32;2.42;;;29.80;48.70;;;;;;10904122;32;20011;-69
2022/07/29 18:31:04;;;;;;;1.58;0.95;;;29.80;50.40;;;;;;10901173;32;20125;-68
2022/07/29 18:37:06;;;;;;;4.05;1.80;;;29.70;51.60;;;;;;10905010;32;20016;-68
2022/07/29 18:43:56;;;;;;;2.83;1.60;;;29.80;51.30;;;;;;10903693;32;20031;-68
2022/07/29 18:50:03;;;;;;;8.25;2.65;;;29.90;51.10;;;;;;10705291;33;20028;-67
2022/07/29 18:56:06;;;;;;;3.17;1.62;;;29.60;52.10;;;;;;10716169;33;20025;-69
2022/07/29 19:02:08;;;;;;;2.65;1.52;;;29.20;52.20;;;;;;10714326;33;20097;-68
2022/07/29 19:08:11;;;;;;;3.72;2.25;;;29.30;52.30;;;;;;10717739;33;20047;-67
2022/07/29 19:14:25;;;;;;;4.10;2.17;;;29.30;52.80;;;;;;10715458;33;20436;-67
2022/07/29 19:20:28;;;;;;;4.05;1.35;;;29.10;53.90;;;;;;10714442;33;20064;-67
2022/07/29 19:26:30;;;;;;;2.47;1.48;;;29.10;53.90;;;;;;10850220;32;20016;-71
2022/07/29 19:32:32;;;;;;;4.20;1.60;;;29.10;54.50;;;;;;10902592;32;20384;-67
2022/07/29 19:38:38;;;;;;;4.43;1.85;;;29.10;54.80;;;;;;10903655;32;20023;-70
2022/07/29 19:44:41;;;;;;;2.78;1.30;;;29.20;55.20;;;;;;10905042;32;20057;-70
2022/07/29 19:50:43;;;;;;;1.12;0.93;;;29.30;55.40;;;;;;10906335;32;20073;-68
2022/07/29 19:56:46;;;;;;;9.50;1.40;;;29.30;55.90;;;;;;10906863;32;20392;-69
2022/07/29 20:02:48;;;;;;;1.08;0.73;;;29.10;55.70;;;;;;10907910;32;20015;-70
2022/07/29 20:08:51;;;;;;;1.42;0.85;;;29.20;55.40;;;;;;10907941;32;20348;-69
2022/07/29 20:14:53;;;;;;;1.60;0.90;;;29.00;55.30;;;;;;10907490;32;20054;-70
2022/07/29 20:20:56;;;;;;;1.15;0.85;;;28.80;55.40;;;;;;10906475;32;20054;-70
2022/07/29 20:26:58;;;;;;;2.53;1.05;;;28.70;55.30;;;;;;10912365;27;20441;-68
2022/07/29 20:33:00;;;;;;;1.20;0.88;;;28.60;54.90;;;;;;10904539;32;20058;-69
2022/07/29 20:39:03;;;;;;;1.98;0.95;;;28.40;55.00;;;;;;10904680;32;20332;-69
2022/07/29 20:45:06;;;;;;;1.15;0.82;;;28.50;54.90;;;;;;10904279;32;20019;-69
2022/07/29 20:51:09;;;;;;;1.48;0.85;;;28.50;54.80;;;;;;10891765;32;20027;-69
2022/07/29 20:57:11;;;;;;;2.08;0.93;;;28.50;54.70;;;;;;10905560;32;20053;-69
2022/07/29 21:03:14;;;;;;;1.62;1.00;;;28.40;54.60;;;;;;10903668;32;20090;-68
2022/07/29 21:09:17;;;;;;;2.12;1.23;;;28.20;54.80;;;;;;10903673;32;20031;-68
2022/07/29 21:15:20;;;;;;;4.53;1.85;;;27.90;55.60;;;;;;10892069;32;20015;-69
2022/07/29 21:21:23;;;;;;;1.65;1.00;;;27.60;55.70;;;;;;10905716;32;20289;-69
2022/07/29 21:33:58;;;;;;;1.83;1.17;;;27.70;55.30;;;;;;10903817;32;20054;-69
2022/07/29 21:40:07;;;;;;;1.85;1.30;;;27.80;55.20;;;;;;10904953;32;20019;-69
2022/07/29 21:46:35;;;;;;;1.90;1.15;;;27.80;55.40;;;;;;10894118;32;20027;-70
2022/07/29 21:52:38;;;;;;;;;;;27.60;55.50;;;;;;10864482;32;20028;-70
2022/07/29 21:58:40;;;;;;;2.62;1.30;;;27.60;55.40;;;;;;10886974;32;19923;-70
2022/07/29 22:04:42;;;;;;;1.67;0.93;;;27.60;55.50;;;;;;10901012;32;20030;-70
2022/07/29 22:10:44;;;;;;;0.62;0.52;;;27.80;55.30;;;;;;10900783;32;20085;-69
2022/07/29 22:16:50;;;;;;;3.55;1.08;;;27.70;55.20;;;;;;10900569;32;20054;-70
2022/07/29 22:22:53;;;;;;;1.98;1.00;;;27.50;55.30;;;;;;10900541;32;20027;-70
2022/07/29 22:28:55;;;;;;;3.00;0.90;;;27.60;55.20;;;;;;10893705;32;20403;-69
2022/07/29 22:34:57;;;;;;;2.28;1.20;;;27.70;55.20;;;;;;10900498;32;20407;-69
2022/07/29 22:40:59;;;;;;;2.72;1.08;;;27.70;55.10;;;;;;10899033;32;20039;-70
2022/07/29 22:47:15;;;;;;;1.50;1.00;;;27.60;55.20;;;;;;10868631;32;20031;-70
2022/07/29 22:53:18;;;;;;;0.77;0.60;;;27.60;55.20;;;;;;10890340;32;20060;-70
2022/07/29 22:59:20;;;;;;;0.65;0.57;;;27.70;55.30;;;;;;10896279;32;20031;-70
2022/07/29 23:05:22;;;;;;;1.27;0.75;;;27.60;55.30;;;;;;10879162;32;20351;-70
2022/07/29 23:11:24;;;;;;;1.40;0.82;;;27.60;55.30;;;;;;10862628;32;20063;-70
2022/07/29 23:17:26;;;;;;;0.73;0.52;;;27.60;55.30;;;;;;10864506;32;20439;-70
2022/07/29 23:23:28;;;;;;;0.60;0.60;;;27.50;55.50;;;;;;10871677;32;20058;-70
2022/07/29 23:29:31;;;;;;;1.30;1.02;;;27.50;55.60;;;;;;10870472;32;20058;-70
2022/07/29 23:35:33;;;;;;;2.47;1.00;;;27.40;55.80;;;;;;10870351;32;20028;-70
2022/07/29 23:41:37;;;;;;;3.25;0.95;;;27.30;55.90;;;;;;10873605;32;20050;-72
2022/07/29 23:47:40;;;;;;;1.02;0.60;;;27.30;56.00;;;;;;10873306;32;20050;-72
2022/07/29 23:53:43;;;;;;;1.65;0.93;;;27.30;56.30;;;;;;10873105;32;20011;-72
2022/07/29 23:59:46;;;;;;;2.03;0.90;;;27.20;56.20;;;;;;10872923;32;20028;-72
